• Join FlightAware (Why Join?)
  • Login
  • US Flag 
05:51AM EST


 

Airport Tracker/Info


-or-


 

Live Flight TrackerFlight Track Log ✈ N155DS ✈ 05-May-2013 ✈ KSUE - KDPA

Flight Track Log - Related Links

Times and Time Zones

All times are in EDT time to prevent confusion due to time zone crossing. See the N155DS flight status page for this flight to view local times or setup timezone preferences in your user account.

Time Position Orientation Groundspeed Altitude Reporting Facility
EDT Latitude Longitude Course Direction KTS MPH feet Rate Location/Type
02:08PM 44.7567 -87.4800 197° South 127 146 2,300  Level Minneapolis Center
02:09PM 44.7150 -87.4992 198° South 129 148 2,900 480 Climbing Minneapolis Center
02:10PM 44.6742 -87.5192 199° South 130 150 3,500 480 Climbing Minneapolis Center
02:11PM 44.6397 -87.5361 199° South 131 151 4,000 240 Climbing Minneapolis Center
02:12PM 44.8382 -87.4239 197° South  Level FlightAware Approximate
02:12PM 44.6017 -87.5556 200° South 135 155 4,000  Level Minneapolis Center
02:13PM 44.8082 -87.4368 197° South  Level FlightAware Approximate
02:13PM 44.5597 -87.5767 200° South 147 169 4,000  Level Minneapolis Center
02:14PM 44.5175 -87.5969 199° South 154 177 4,000  Level Minneapolis Center
02:15PM 44.4661 -87.6214 199° South 160 184 4,000  Level Minneapolis Center
02:16PM 44.4233 -87.6419 199° South 161 185 4,000 240 Level Minneapolis Center
02:17PM 44.3825 -87.6606 198° South 158 182 4,500 480 Climbing Minneapolis Center
02:19PM 44.3383 -87.6814 199° South 148 170 5,100 480 Climbing Minneapolis Center
02:20PM 44.2939 -87.7033 199° South 145 167 5,700 420 Climbing Minneapolis Center
02:21PM 44.2569 -87.7203 198° South 142 163 6,000 120 Climbing Minneapolis Center
02:22PM 44.2150 -87.7417 200° South 149 171 6,000  Level Minneapolis Center
02:23PM 44.1703 -87.7636 199° South 163 188 6,000  Level Minneapolis Center
02:24PM 44.1264 -87.7856 200° South 167 192 6,100  Climbing Minneapolis Center
02:25PM 44.0742 -87.8111 199° South 168 193 6,100  Level Minneapolis Center
02:26PM 44.0300 -87.8328 199° South 168 193 6,100  Level Minneapolis Center
02:27PM 43.9864 -87.8536 199° South 166 191 6,100  Level Minneapolis Center
02:28PM 43.9442 -87.8747 200° South 163 188 6,100  Level Minneapolis Center
02:29PM 43.9014 -87.8950 199° South 162 186 6,100  Level Minneapolis Center
02:30PM 43.8569 -87.9161 199° South 166 191 6,100  Level Minneapolis Center
02:31PM 43.8042 -87.9419 199° South 170 196 6,100  Level Minneapolis Center
02:32PM 43.7592 -87.9642 200° South 171 197 6,100  Level Minneapolis Center
02:33PM 43.7142 -87.9858 199° South 171 197 6,100 -60 Level Minneapolis Center
02:34PM 43.6692 -88.0069 199° South 170 196 6,000 -60 Descending Minneapolis Center
02:35PM 43.6244 -88.0292 200° South 171 197 6,000  Level Minneapolis Center
02:36PM 43.5939 -88.0397 194° South 171 197 6,000  Level Chicago Center
02:37PM 43.5467 -88.0417 182° South 170 196 6,000  Level Chicago Center
02:38PM 43.4989 -88.0469 185° South 170 196 6,000  Level Chicago Center
02:39PM 43.4517 -88.0533 186° South 170 196 6,000  Level Chicago Center
02:40PM 43.3961 -88.0606 185° South 170 196 6,000  Level Chicago Center
02:41PM 43.3489 -88.0669 186° South 170 196 6,000  Level Chicago Center
02:42PM 43.3014 -88.0731 185° South 170 196 6,000  Level Chicago Center
02:43PM 43.2536 -88.0789 185° South 171 197 6,000  Level Chicago Center
02:44PM 43.2053 -88.0839 184° South 173 199 6,000  Level Chicago Center
02:45PM 43.1567 -88.0919 187° South 174 200 6,000  Level Chicago Center
02:46PM 43.1003 -88.0986 185° South 174 200 6,000  Level Chicago Center
02:47PM 43.0833 -88.1000 183° South 175 201 6,000  Level KMKE
02:48PM 43.0333 -88.1000 180° South 173 199 6,000  Level KMKE
02:49PM 42.9833 -88.1333 206° Southwest 175 201 6,000  Level KMKE
02:49PM 42.9594 -88.1417 194° South 172 198 6,000 -300 Level Chicago Center
02:50PM 42.9122 -88.1656 200° South 177 204 5,500 -540 Descending Chicago Center
02:51PM 42.8642 -88.1881 199° South 181 208 5,000 -540 Descending Chicago Center
02:52PM 42.8083 -88.2139 199° South 181 208 4,400 -540 Descending Chicago Center
02:53PM 42.7583 -88.2158 182° South 180 207 4,000 -240 Descending Chicago Center
02:54PM 42.7144 -88.2383 201° Southwest 172 198 4,000  Level Chicago Center
02:55PM 42.6694 -88.2653 204° Southwest 173 199 4,000  Level Chicago Center
02:56PM 42.6281 -88.2869 201° Southwest 168 193 4,000  Level Chicago Center
02:57PM 42.5864 -88.3139 205° Southwest 165 190 4,000  Level Chicago Center
02:59PM 42.5364 -88.3372 199° South 164 189 4,000  Level Chicago Center
03:00PM 42.4942 -88.3156 159° South 160 184 4,000  Level Chicago Center
03:01PM 42.4536 -88.3017 166° South 152 175 4,000  Level Chicago Center
03:02PM 42.4086 -88.3183 195° South 160 184 4,000  Level Chicago Center
03:03PM 42.3644 -88.3294 191° South 162 186 4,000  Level Chicago Center
03:04PM 42.3158 -88.3353 185° South 160 184 4,000  Level Chicago Center
03:05PM 42.2731 -88.3444 189° South 158 182 4,000 -240 Level Chicago Center
03:06PM 42.2283 -88.3472 183° South 162 186 3,600 -540 Descending Chicago Center
03:07PM 42.1689 -88.3525 184° South 174 200 3,000 -300 Descending Chicago Center
03:08PM 42.1203 -88.3536 181° South 176 203 3,000  Level Chicago Center
03:09PM 42.0744 -88.3569 183° South 172 198 3,000 -120 Level Chicago Center
03:10PM 42.0300 -88.3528 176° South 166 191 2,800 -240 Descending Chicago Center
03:11PM 41.9850 -88.3325 161° South 167 192 2,500 -300 Descending Chicago Center
03:12PM 41.9411 -88.2950 148° Southeast 164 189 2,200 -300 Descending Chicago Center
03:13PM 41.9019 -88.2831 167° South 161 185 2,000 -540 Descending Chicago Center
03:14PM 41.8811 -88.2642 146° Southeast 140 161 1,200 -540 Descending Chicago Center
03:15PM 41.9042 -88.2397 38° Northeast 135 155 1,000 -240 Descending Chicago Center